Time;durP1;ratioP1;P1;durP2;ratioP2;P2;SDS_P1;SDS_P2;PMS_P1;PMS_P2;Temp;Humidity;BMP_temperature;BMP_pressure;BME280_temperature;BME280_humidity;BME280_pressure;Samples;Min_cycle;Max_cycle;Signal;HPM_P1;HPM_P2
2021/08/10 00:00:39;;;;;;;4.13;1.67;;;;;;;;;;5078785;28;20449;-70
2021/08/10 00:03:07;;;;;;;7.73;2.77;;;;;;;;;;5079563;28;21029;-70
2021/08/10 00:05:36;;;;;;;3.80;1.97;;;;;;;;;;5079052;28;20464;-70
2021/08/10 00:08:04;;;;;;;3.60;2.40;;;;;;;;;;5078638;28;20480;-70
2021/08/10 00:10:32;;;;;;;7.17;2.47;;;;;;;;;;5078507;28;20480;-70
2021/08/10 00:12:59;;;;;;;7.00;2.17;;;;;;;;;;5078330;28;20448;-70
2021/08/10 00:15:27;;;;;;;2.70;1.87;;;;;;;;;;5078821;28;20543;-70
2021/08/10 00:17:55;;;;;;;3.73;1.90;;;;;;;;;;5078556;28;20448;-70
2021/08/10 00:20:22;;;;;;;2.87;1.70;;;;;;;;;;5078179;28;20949;-70
2021/08/10 00:22:53;;;;;;;2.20;1.60;;;;;;;;;;5078248;28;20472;-70
2021/08/10 00:25:20;;;;;;;4.93;2.97;;;;;;;;;;5077774;28;20455;-71
2021/08/10 00:27:48;;;;;;;5.30;1.80;;;;;;;;;;5078292;28;20444;-70
2021/08/10 00:30:15;;;;;;;3.40;1.77;;;;;;;;;;5078306;28;20480;-70
2021/08/10 00:32:43;;;;;;;7.70;2.60;;;;;;;;;;5078782;28;20480;-70
2021/08/10 00:35:11;;;;;;;3.90;1.73;;;;;;;;;;5078449;28;20531;-70
2021/08/10 00:37:39;;;;;;;3.10;1.80;;;;;;;;;;5077971;28;20733;-70
2021/08/10 00:40:10;;;;;;;3.70;2.43;;;;;;;;;;5078359;28;20453;-70
2021/08/10 00:42:37;;;;;;;10.20;2.30;;;;;;;;;;5078180;28;20480;-70
2021/08/10 00:45:06;;;;;;;3.20;1.83;;;;;;;;;;5078496;28;20476;-71
2021/08/10 00:47:33;;;;;;;4.03;2.27;;;;;;;;;;5078152;28;20475;-70
2021/08/10 00:50:01;;;;;;;3.63;2.33;;;;;;;;;;5077402;28;20476;-70
2021/08/10 00:52:30;;;;;;;4.93;2.17;;;;;;;;;;5077689;28;20492;-70
2021/08/10 00:54:57;;;;;;;3.00;1.70;;;;;;;;;;5078140;28;20518;-70
2021/08/10 00:57:26;;;;;;;4.60;1.90;;;;;;;;;;5077678;28;20452;-70
2021/08/10 00:59:54;;;;;;;3.70;1.97;;;;;;;;;;5078580;28;20444;-70
2021/08/10 01:02:22;;;;;;;4.17;2.00;;;;;;;;;;5077751;28;20464;-70
2021/08/10 01:04:51;;;;;;;5.17;2.20;;;;;;;;;;5077478;28;20540;-70
2021/08/10 01:07:23;;;;;;;4.00;1.87;;;;;;;;;;5077804;28;20811;-70
2021/08/10 01:09:52;;;;;;;2.33;1.40;;;;;;;;;;5077197;28;20792;-70
2021/08/10 01:12:24;;;;;;;4.63;1.80;;;;;;;;;;5077646;28;20451;-70
2021/08/10 01:14:57;;;;;;;2.40;1.97;;;;;;;;;;5077816;28;20452;-70
2021/08/10 01:17:26;;;;;;;3.43;2.10;;;;;;;;;;5076669;28;20453;-70
2021/08/10 01:20:12;;;;;;;3.27;1.90;;;;;;;;;;5077159;28;20456;-70
2021/08/10 01:22:41;;;;;;;4.03;1.97;;;;;;;;;;5077486;28;20464;-71
2021/08/10 01:25:14;;;;;;;4.40;2.07;;;;;;;;;;5077210;28;20837;-71
2021/08/10 01:27:53;;;;;;;4.50;1.90;;;;;;;;;;5076819;28;20547;-71
2021/08/10 01:30:23;;;;;;;4.97;2.63;;;;;;;;;;5076981;28;20506;-70
2021/08/10 01:32:53;;;;;;;4.50;2.27;;;;;;;;;;5077136;28;20731;-70
2021/08/10 01:35:21;;;;;;;4.20;1.90;;;;;;;;;;5076587;28;20476;-70
2021/08/10 01:37:51;;;;;;;4.87;2.00;;;;;;;;;;5076818;28;20464;-70
2021/08/10 01:40:20;;;;;;;4.13;1.80;;;;;;;;;;5077430;28;20476;-70
2021/08/10 01:42:48;;;;;;;5.03;1.80;;;;;;;;;;5076739;28;20463;-70
2021/08/10 01:45:17;;;;;;;2.40;1.83;;;;;;;;;;5076747;28;20453;-70
2021/08/10 01:47:47;;;;;;;3.50;2.30;;;;;;;;;;5077073;28;20515;-70
2021/08/10 01:50:16;;;;;;;3.20;1.80;;;;;;;;;;5077747;28;20481;-70
2021/08/10 01:52:44;;;;;;;3.13;2.23;;;;;;;;;;5076789;28;20460;-70
2021/08/10 01:55:12;;;;;;;4.03;2.10;;;;;;;;;;5077465;28;20440;-70
2021/08/10 01:57:46;;;;;;;10.73;2.00;;;;;;;;;;5077041;28;20756;-70
2021/08/10 02:00:15;;;;;;;7.40;2.13;;;;;;;;;;5076400;28;20449;-70
2021/08/10 02:02:43;;;;;;;3.00;1.83;;;;;;;;;;5075178;28;20590;-70
2021/08/10 02:05:12;;;;;;;2.70;1.73;;;;;;;;;;5076883;28;20463;-70
2021/08/10 02:07:41;;;;;;;2.97;2.00;;;;;;;;;;5076175;28;20527;-70
2021/08/10 02:10:10;;;;;;;4.03;2.03;;;;;;;;;;5076845;28;20490;-70
2021/08/10 02:12:38;;;;;;;4.00;2.73;;;;;;;;;;5075429;28;20516;-70
2021/08/10 02:15:06;;;;;;;5.10;2.07;;;;;;;;;;5076263;28;20459;-70
2021/08/10 02:17:34;;;;;;;4.03;2.30;;;;;;;;;;5076014;28;20460;-70
2021/08/10 02:20:01;;;;;;;6.20;2.07;;;;;;;;;;5076705;28;20551;-70
2021/08/10 02:22:30;;;;;;;4.00;2.33;;;;;;;;;;5075911;28;20492;-70
2021/08/10 02:25:00;;;;;;;6.33;2.70;;;;;;;;;;5076357;28;20744;-70
2021/08/10 02:27:32;;;;;;;3.80;2.30;;;;;;;;;;5075546;28;20547;-70
2021/08/10 02:30:02;;;;;;;3.40;2.50;;;;;;;;;;5076026;28;20479;-71
2021/08/10 02:32:30;;;;;;;3.70;2.37;;;;;;;;;;5076291;28;20514;-70
2021/08/10 02:34:59;;;;;;;7.23;2.70;;;;;;;;;;5076256;28;20555;-71
2021/08/10 02:37:27;;;;;;;3.43;2.20;;;;;;;;;;5076175;28;20800;-70
2021/08/10 02:39:55;;;;;;;3.27;2.10;;;;;;;;;;5076034;28;20456;-70
2021/08/10 02:42:26;;;;;;;4.20;2.20;;;;;;;;;;5076418;28;20933;-70
2021/08/10 02:44:54;;;;;;;3.07;1.67;;;;;;;;;;5063374;28;20554;-70
2021/08/10 02:47:23;;;;;;;2.83;2.00;;;;;;;;;;5078374;28;20519;-70
2021/08/10 02:49:51;;;;;;;2.63;1.60;;;;;;;;;;5080200;28;20495;-70
2021/08/10 02:52:19;;;;;;;3.73;2.07;;;;;;;;;;5080062;28;20495;-70
2021/08/10 02:54:47;;;;;;;4.37;2.10;;;;;;;;;;5080165;28;20803;-70
2021/08/10 02:57:18;;;;;;;2.33;1.70;;;;;;;;;;5080181;28;20452;-70
2021/08/10 02:59:49;;;;;;;4.23;1.80;;;;;;;;;;5078046;28;20464;-70
2021/08/10 03:02:18;;;;;;;3.13;1.87;;;;;;;;;;5079008;28;20527;-70
2021/08/10 03:04:49;;;;;;;4.60;2.50;;;;;;;;;;5079971;28;20456;-70
2021/08/10 03:07:17;;;;;;;2.57;1.70;;;;;;;;;;5080459;28;20444;-70
2021/08/10 03:09:45;;;;;;;2.40;1.93;;;;;;;;;;5079884;28;20456;-70
2021/08/10 03:12:14;;;;;;;5.37;2.27;;;;;;;;;;5079077;28;20927;-70
2021/08/10 03:14:43;;;;;;;3.00;2.03;;;;;;;;;;5079433;28;20467;-70
2021/08/10 03:17:12;;;;;;;4.57;2.90;;;;;;;;;;5079399;28;20472;-70
2021/08/10 03:19:42;;;;;;;2.50;2.13;;;;;;;;;;5078966;28;20543;-70
2021/08/10 03:22:10;;;;;;;4.77;2.73;;;;;;;;;;5074852;28;20532;-70
2021/08/10 03:24:40;;;;;;;5.77;2.40;;;;;;;;;;5079538;28;20451;-71
2021/08/10 03:27:07;;;;;;;4.00;2.33;;;;;;;;;;5078503;28;20448;-71
2021/08/10 03:29:36;;;;;;;4.07;3.53;;;;;;;;;;5079128;28;20899;-70
2021/08/10 03:32:04;;;;;;;3.30;2.83;;;;;;;;;;5078722;28;20472;-70
2021/08/10 03:34:34;;;;;;;5.27;4.50;;;;;;;;;;5077191;28;20911;-71
2021/08/10 03:37:02;;;;;;;3.57;2.67;;;;;;;;;;5079055;28;20448;-70
2021/08/10 03:39:30;;;;;;;4.90;3.50;;;;;;;;;;5079103;28;20452;-70
2021/08/10 03:41:57;;;;;;;4.80;3.70;;;;;;;;;;5078857;28;20457;-70
2021/08/10 03:44:26;;;;;;;6.17;2.80;;;;;;;;;;5079053;28;20452;-70
2021/08/10 03:46:53;;;;;;;7.70;3.17;;;;;;;;;;5078712;28;20476;-70
2021/08/10 03:49:23;;;;;;;4.10;2.90;;;;;;;;;;5078834;28;20727;-70
2021/08/10 03:51:54;;;;;;;5.63;3.50;;;;;;;;;;5078217;28;20508;-70
2021/08/10 03:54:22;;;;;;;3.23;2.93;;;;;;;;;;5079260;28;20526;-70
2021/08/10 03:56:51;;;;;;;4.63;3.30;;;;;;;;;;5078368;28;21119;-70
2021/08/10 03:59:20;;;;;;;3.93;2.40;;;;;;;;;;5078239;28;20538;-70
2021/08/10 04:01:48;;;;;;;3.83;2.03;;;;;;;;;;5079024;28;20864;-70
2021/08/10 04:04:16;;;;;;;4.63;2.30;;;;;;;;;;5074352;28;20746;-70
2021/08/10 04:06:45;;;;;;;3.20;2.10;;;;;;;;;;5077894;28;20459;-70
2021/08/10 04:09:16;;;;;;;3.33;2.40;;;;;;;;;;5079031;28;20448;-70
2021/08/10 04:11:43;;;;;;;4.30;2.87;;;;;;;;;;5078066;28;20537;-70
2021/08/10 04:14:12;;;;;;;3.73;2.10;;;;;;;;;;5077235;28;20736;-70
2021/08/10 04:16:47;;;;;;;3.00;2.30;;;;;;;;;;5075535;28;20484;-70
2021/08/10 04:19:15;;;;;;;3.30;2.03;;;;;;;;;;5079619;28;20923;-70
2021/08/10 04:21:44;;;;;;;3.73;2.53;;;;;;;;;;5093206;28;20456;-71
2021/08/10 04:24:11;;;;;;;9.67;3.30;;;;;;;;;;5098325;28;20460;-70
2021/08/10 04:26:40;;;;;;;4.53;2.27;;;;;;;;;;5096059;28;20866;-70
2021/08/10 04:29:08;;;;;;;3.60;2.77;;;;;;;;;;5074797;28;20459;-70
2021/08/10 04:31:36;;;;;;;4.43;2.20;;;;;;;;;;5077967;28;20610;-70
2021/08/10 04:34:04;;;;;;;4.10;2.23;;;;;;;;;;5070570;28;20972;-70
2021/08/10 04:36:31;;;;;;;5.83;2.60;;;;;;;;;;5058100;28;20468;-70
2021/08/10 04:38:59;;;;;;;4.10;2.60;;;;;;;;;;5058136;28;20494;-70
2021/08/10 04:41:27;;;;;;;2.83;2.10;;;;;;;;;;5058200;28;20487;-70
2021/08/10 04:43:57;;;;;;;3.90;2.63;;;;;;;;;;5058356;28;20449;-70
2021/08/10 04:46:28;;;;;;;3.53;1.90;;;;;;;;;;5057974;28;20469;-70
2021/08/10 04:48:56;;;;;;;3.57;2.77;;;;;;;;;;5057524;28;20448;-70
2021/08/10 04:51:25;;;;;;;5.27;2.90;;;;;;;;;;5057392;28;20485;-70
2021/08/10 04:53:52;;;;;;;3.67;2.07;;;;;;;;;;5062927;28;20452;-70
2021/08/10 04:56:20;;;;;;;3.70;2.83;;;;;;;;;;5077928;28;20455;-70
2021/08/10 04:58:48;;;;;;;3.33;2.50;;;;;;;;;;5077193;28;20518;-70
2021/08/10 05:01:17;;;;;;;4.07;2.80;;;;;;;;;;5076808;28;20484;-71
2021/08/10 05:03:44;;;;;;;4.17;2.13;;;;;;;;;;5077219;28;20778;-70
2021/08/10 05:06:15;;;;;;;7.33;3.93;;;;;;;;;;5076963;28;20642;-70
2021/08/10 05:08:43;;;;;;;5.67;5.03;;;;;;;;;;5066739;28;20453;-70
2021/08/10 05:11:17;;;;;;;4.97;2.50;;;;;;;;;;5077164;28;20567;-71
2021/08/10 05:13:45;;;;;;;4.30;2.60;;;;;;;;;;5076209;28;20448;-70
2021/08/10 05:16:13;;;;;;;3.50;2.50;;;;;;;;;;5076801;28;20531;-70
2021/08/10 05:18:47;;;;;;;4.27;2.77;;;;;;;;;;5077046;28;20475;-70
2021/08/10 05:21:16;;;;;;;4.63;2.50;;;;;;;;;;5076602;28;20466;-70
2021/08/10 05:23:47;;;;;;;4.70;2.80;;;;;;;;;;5076263;28;20515;-70
2021/08/10 05:26:15;;;;;;;3.70;2.90;;;;;;;;;;5076710;28;20507;-70
2021/08/10 05:28:43;;;;;;;3.97;2.60;;;;;;;;;;5076729;28;20572;-70
2021/08/10 05:31:10;;;;;;;4.90;2.63;;;;;;;;;;5076694;28;20900;-70
2021/08/10 05:33:41;;;;;;;5.63;2.97;;;;;;;;;;5063024;28;20819;-70
2021/08/10 05:36:11;;;;;;;6.87;3.03;;;;;;;;;;5072530;28;20875;-70
2021/08/10 05:38:40;;;;;;;6.13;3.17;;;;;;;;;;5075727;28;20966;-70
2021/08/10 05:41:07;;;;;;;6.20;2.57;;;;;;;;;;5076294;28;20464;-70
2021/08/10 05:43:37;;;;;;;7.50;2.83;;;;;;;;;;5075497;28;20464;-70
2021/08/10 05:46:04;;;;;;;5.43;2.63;;;;;;;;;;5076671;28;20448;-70
2021/08/10 05:48:32;;;;;;;3.73;3.17;;;;;;;;;;5075506;28;21055;-70
2021/08/10 05:51:00;;;;;;;5.90;3.93;;;;;;;;;;5075949;28;20448;-70
2021/08/10 05:53:34;;;;;;;3.07;2.00;;;;;;;;;;5077184;28;20487;-70
2021/08/10 05:56:02;;;;;;;5.30;3.83;;;;;;;;;;5076474;28;20871;-70
2021/08/10 05:58:32;;;;;;;4.40;3.43;;;;;;;;;;5076125;28;20453;-70
2021/08/10 06:01:05;;;;;;;6.00;3.40;;;;;;;;;;5076163;28;20516;-70
2021/08/10 06:03:33;;;;;;;4.43;3.30;;;;;;;;;;5076164;28;20460;-70
2021/08/10 06:06:01;;;;;;;5.73;5.23;;;;;;;;;;5075868;28;21117;-70
2021/08/10 06:08:28;;;;;;;4.90;4.30;;;;;;;;;;5076057;28;20461;-70
2021/08/10 06:11:00;;;;;;;7.27;5.03;;;;;;;;;;5075752;28;20476;-70
2021/08/10 06:13:28;;;;;;;23.17;20.77;;;;;;;;;;5073952;28;20521;-70
2021/08/10 06:15:56;;;;;;;5.40;4.40;;;;;;;;;;5086530;28;20462;-70
2021/08/10 06:18:24;;;;;;;4.33;3.83;;;;;;;;;;5061942;28;20469;-70
2021/08/10 06:20:52;;;;;;;5.00;4.60;;;;;;;;;;5073723;28;20480;-70
2021/08/10 06:23:24;;;;;;;6.00;5.40;;;;;;;;;;5074519;28;20895;-70
2021/08/10 06:25:52;;;;;;;3.97;3.63;;;;;;;;;;5074606;28;20456;-70
2021/08/10 06:28:21;;;;;;;4.70;4.20;;;;;;;;;;5075246;28;20562;-70
2021/08/10 06:30:49;;;;;;;7.93;3.63;;;;;;;;;;5075295;28;20629;-69
2021/08/10 06:33:16;;;;;;;9.63;4.20;;;;;;;;;;5074496;28;20495;-70
2021/08/10 06:35:44;;;;;;;6.00;5.40;;;;;;;;;;5072606;28;20492;-70
2021/08/10 06:38:12;;;;;;;5.33;3.50;;;;;;;;;;5074862;28;20461;-70
2021/08/10 06:40:39;;;;;;;4.57;2.97;;;;;;;;;;5075661;28;20567;-70
2021/08/10 06:43:08;;;;;;;5.03;2.70;;;;;;;;;;5075116;28;20471;-70
2021/08/10 06:45:38;;;;;;;3.00;2.40;;;;;;;;;;5074501;28;20559;-70
2021/08/10 06:48:06;;;;;;;6.30;4.90;;;;;;;;;;5074795;28;20553;-71
2021/08/10 06:50:34;;;;;;;4.70;3.00;;;;;;;;;;5074990;28;20459;-70
2021/08/10 06:53:07;;;;;;;11.63;4.53;;;;;;;;;;5057698;28;20549;-70
2021/08/10 06:55:34;;;;;;;8.70;3.40;;;;;;;;;;5056719;28;20540;-70
2021/08/10 06:58:03;;;;;;;6.70;2.70;;;;;;;;;;5073462;28;20468;-71
2021/08/10 07:00:32;;;;;;;8.33;5.60;;;;;;;;;;5074897;28;20452;-70
2021/08/10 07:03:01;;;;;;;4.13;3.20;;;;;;;;;;5075714;28;20453;-69
2021/08/10 07:05:29;;;;;;;6.37;3.60;;;;;;;;;;5074197;28;20510;-71
2021/08/10 07:07:57;;;;;;;12.10;5.07;;;;;;;;;;5074348;28;20514;-71
2021/08/10 07:10:25;;;;;;;6.53;5.40;;;;;;;;;;5074732;28;20786;-71
2021/08/10 07:12:55;;;;;;;8.13;5.73;;;;;;;;;;5072697;28;20596;-72
2021/08/10 07:15:23;;;;;;;7.37;5.20;;;;;;;;;;5061300;28;20536;-70
2021/08/10 07:17:54;;;;;;;5.50;4.80;;;;;;;;;;5074545;28;20472;-71
2021/08/10 07:20:23;;;;;;;5.37;2.70;;;;;;;;;;5075044;28;20445;-71
2021/08/10 07:22:52;;;;;;;11.77;5.03;;;;;;;;;;5074593;28;20541;-71
2021/08/10 07:25:22;;;;;;;5.97;4.37;;;;;;;;;;5074403;28;20437;-72
2021/08/10 07:27:50;;;;;;;7.17;3.63;;;;;;;;;;5074253;28;20725;-71
2021/08/10 07:30:18;;;;;;;5.60;4.13;;;;;;;;;;5074618;28;20733;-71
2021/08/10 07:32:46;;;;;;;7.70;4.43;;;;;;;;;;5073727;28;20607;-71
2021/08/10 07:35:14;;;;;;;6.03;4.33;;;;;;;;;;5077298;28;20712;-71
2021/08/10 07:37:49;;;;;;;4.07;3.07;;;;;;;;;;5077368;28;20456;-73
2021/08/10 07:40:17;;;;;;;5.57;3.17;;;;;;;;;;5077810;28;20459;-71
2021/08/10 07:42:50;;;;;;;5.93;2.93;;;;;;;;;;5077448;28;20863;-71
2021/08/10 07:45:20;;;;;;;5.30;4.00;;;;;;;;;;5077427;28;20452;-71
2021/08/10 07:47:48;;;;;;;6.10;3.90;;;;;;;;;;5077389;28;20456;-71
2021/08/10 07:50:20;;;;;;;7.00;5.37;;;;;;;;;;5076597;28;20456;-71
2021/08/10 07:52:52;;;;;;;5.27;3.10;;;;;;;;;;5077888;28;20480;-71
2021/08/10 07:55:21;;;;;;;6.50;3.83;;;;;;;;;;5078352;28;21020;-69
2021/08/10 07:57:49;;;;;;;7.40;3.50;;;;;;;;;;5096317;28;20464;-70
2021/08/10 08:00:17;;;;;;;8.50;6.50;;;;;;;;;;5078537;28;20456;-71
2021/08/10 08:02:52;;;;;;;6.00;2.50;;;;;;;;;;5077853;28;20813;-71
2021/08/10 08:05:23;;;;;;;7.37;4.17;;;;;;;;;;5076784;28;20462;-72
2021/08/10 08:07:56;;;;;;;4.47;3.60;;;;;;;;;;5077579;28;20459;-72
2021/08/10 08:10:27;;;;;;;5.07;2.87;;;;;;;;;;5077231;28;20457;-72
2021/08/10 08:12:56;;;;;;;9.70;5.33;;;;;;;;;;5078722;28;20541;-71
2021/08/10 08:15:24;;;;;;;11.90;3.67;;;;;;;;;;5077769;28;20518;-71
2021/08/10 08:17:52;;;;;;;6.67;3.90;;;;;;;;;;5077748;28;20477;-73
2021/08/10 08:20:20;;;;;;;6.07;3.07;;;;;;;;;;5077686;28;20532;-72
2021/08/10 08:22:48;;;;;;;4.80;2.53;;;;;;;;;;5078491;28;20463;-72
2021/08/10 08:25:17;;;;;;;9.43;3.77;;;;;;;;;;5077728;28;20782;-73
2021/08/10 08:27:45;;;;;;;7.10;3.60;;;;;;;;;;5077267;28;20912;-72
2021/08/10 08:30:13;;;;;;;7.33;4.70;;;;;;;;;;5076693;28;20455;-72
2021/08/10 08:32:44;;;;;;;7.93;4.57;;;;;;;;;;5076617;28;20571;-72
2021/08/10 08:35:13;;;;;;;9.63;4.03;;;;;;;;;;5078570;28;20832;-70
2021/08/10 08:37:41;;;;;;;9.10;4.50;;;;;;;;;;5076306;28;20860;-72
2021/08/10 08:40:10;;;;;;;8.90;4.33;;;;;;;;;;5075758;28;20441;-72
2021/08/10 08:42:42;;;;;;;9.20;4.73;;;;;;;;;;5075106;28;20455;-72
2021/08/10 08:45:10;;;;;;;8.47;6.23;;;;;;;;;;5073513;28;20452;-72
2021/08/10 08:47:40;;;;;;;9.33;4.13;;;;;;;;;;5076594;28;20453;-73
2021/08/10 08:50:10;;;;;;;9.47;6.10;;;;;;;;;;5076694;28;20487;-71
2021/08/10 08:52:41;;;;;;;9.40;4.50;;;;;;;;;;5076752;28;20591;-71
2021/08/10 08:55:14;;;;;;;5.83;4.30;;;;;;;;;;5076525;28;20503;-72
2021/08/10 08:57:45;;;;;;;5.10;3.47;;;;;;;;;;5078144;28;20445;-72
2021/08/10 09:00:15;;;;;;;5.37;3.53;;;;;;;;;;5072439;28;20502;-71
2021/08/10 09:02:47;;;;;;;7.07;5.17;;;;;;;;;;5076312;28;20441;-71
2021/08/10 09:05:15;;;;;;;12.50;4.30;;;;;;;;;;5075627;28;20459;-71
2021/08/10 09:07:43;;;;;;;9.10;5.10;;;;;;;;;;5075499;28;20448;-71
2021/08/10 09:10:19;;;;;;;7.50;4.10;;;;;;;;;;5077174;28;20531;-72
2021/08/10 09:12:59;;;;;;;6.43;4.27;;;;;;;;;;5076901;28;20827;-72
2021/08/10 09:15:36;;;;;;;6.63;3.77;;;;;;;;;;5073545;28;20895;-72
2021/08/10 09:18:11;;;;;;;11.60;5.57;;;;;;;;;;5075410;28;20509;-71
2021/08/10 09:20:40;;;;;;;5.93;4.50;;;;;;;;;;5074472;28;20456;-72
2021/08/10 09:23:08;;;;;;;5.80;4.20;;;;;;;;;;5075772;28;20531;-71
2021/08/10 09:25:41;;;;;;;7.60;5.30;;;;;;;;;;5074286;28;20471;-71
2021/08/10 09:28:11;;;;;;;7.80;5.07;;;;;;;;;;5074781;28;20569;-71
2021/08/10 09:30:39;;;;;;;5.77;5.17;;;;;;;;;;5075345;28;20460;-71
2021/08/10 09:33:07;;;;;;;6.30;5.00;;;;;;;;;;5074878;28;21137;-71
2021/08/10 09:35:36;;;;;;;7.27;6.07;;;;;;;;;;5076072;28;20459;-70
2021/08/10 09:38:06;;;;;;;9.13;5.93;;;;;;;;;;5074171;28;20856;-70
2021/08/10 09:40:42;;;;;;;6.37;5.77;;;;;;;;;;5073962;28;20567;-71
2021/08/10 09:43:25;;;;;;;5.93;5.20;;;;;;;;;;5073732;28;20871;-70
2021/08/10 09:46:09;;;;;;;8.20;7.33;;;;;;;;;;5064498;28;20449;-71
2021/08/10 09:48:55;;;;;;;9.30;7.27;;;;;;;;;;5071010;28;20470;-71
2021/08/10 09:51:35;;;;;;;11.03;6.10;;;;;;;;;;5072730;28;20453;-71
2021/08/10 09:54:12;;;;;;;11.60;6.73;;;;;;;;;;5075627;28;20566;-70
2021/08/10 09:56:44;;;;;;;6.30;5.10;;;;;;;;;;5074517;28;20463;-71
2021/08/10 09:59:13;;;;;;;10.60;6.23;;;;;;;;;;5075754;28;20455;-70
2021/08/10 10:01:42;;;;;;;8.33;4.83;;;;;;;;;;5076995;28;20522;-68
2021/08/10 10:04:22;;;;;;;5.53;3.30;;;;;;;;;;5078179;28;20436;-72
2021/08/10 10:06:54;;;;;;;9.13;5.87;;;;;;;;;;5074066;28;20460;-71
2021/08/10 10:09:30;;;;;;;12.10;7.10;;;;;;;;;;5073057;28;20460;-70
2021/08/10 10:12:01;;;;;;;7.67;4.80;;;;;;;;;;5075749;28;20452;-72
2021/08/10 10:14:39;;;;;;;8.17;5.60;;;;;;;;;;5078790;28;20486;-71
2021/08/10 10:17:12;;;;;;;5.17;4.30;;;;;;;;;;5074280;28;20471;-70
2021/08/10 10:19:43;;;;;;;6.70;4.43;;;;;;;;;;5077166;28;20464;-71
2021/08/10 10:22:21;;;;;;;12.03;4.97;;;;;;;;;;5074695;28;20532;-73
2021/08/10 10:24:51;;;;;;;13.00;7.20;;;;;;;;;;5073674;28;20445;-71
2021/08/10 10:27:19;;;;;;;13.43;11.73;;;;;;;;;;5073287;28;20543;-70
2021/08/10 10:29:49;;;;;;;11.20;6.87;;;;;;;;;;5075418;28;20448;-71
2021/08/10 10:32:19;;;;;;;11.60;9.10;;;;;;;;;;5074516;28;20527;-70
2021/08/10 10:34:49;;;;;;;11.13;8.80;;;;;;;;;;5073474;28;20441;-71
2021/08/10 10:37:27;;;;;;;13.47;9.10;;;;;;;;;;5073762;28;20517;-71
2021/08/10 10:39:59;;;;;;;7.30;6.50;;;;;;;;;;5074816;28;20436;-71
2021/08/10 10:42:27;;;;;;;8.17;5.97;;;;;;;;;;5074054;28;20452;-71
2021/08/10 10:44:55;;;;;;;11.40;9.13;;;;;;;;;;5073953;28;20572;-71
2021/08/10 10:47:38;;;;;;;11.80;8.57;;;;;;;;;;5074425;28;20537;-71
2021/08/10 10:50:21;;;;;;;8.00;5.33;;;;;;;;;;5074701;28;20539;-70
2021/08/10 10:53:17;;;;;;;7.97;5.67;;;;;;;;;;5074454;28;20480;-71
2021/08/10 10:55:46;;;;;;;9.17;6.57;;;;;;;;;;5073979;28;20482;-71
2021/08/10 10:58:34;;;;;;;9.57;7.40;;;;;;;;;;5073984;28;20456;-71
2021/08/10 11:01:19;;;;;;;8.30;3.87;;;;;;;;;;5076691;28;20452;-71
2021/08/10 11:04:03;;;;;;;5.53;4.83;;;;;;;;;;5073970;28;20437;-72
2021/08/10 11:06:34;;;;;;;8.03;6.07;;;;;;;;;;5076282;28;20498;-72
2021/08/10 11:09:04;;;;;;;6.73;4.67;;;;;;;;;;5077890;28;20874;-71
2021/08/10 11:11:49;;;;;;;6.90;4.33;;;;;;;;;;5081506;28;20748;-73
2021/08/10 11:14:35;;;;;;;12.83;6.53;;;;;;;;;;5078483;28;20517;-71
2021/08/10 11:17:12;;;;;;;11.00;9.77;;;;;;;;;;5067688;28;20464;-72
2021/08/10 11:19:41;;;;;;;7.77;4.77;;;;;;;;;;5078637;28;20455;-71
2021/08/10 11:22:24;;;;;;;8.83;6.10;;;;;;;;;;5077196;28;20875;-69
2021/08/10 11:24:53;;;;;;;8.10;6.33;;;;;;;;;;5078107;28;20460;-71
2021/08/10 11:27:35;;;;;;;8.60;5.90;;;;;;;;;;5077543;28;20440;-70
2021/08/10 11:30:04;;;;;;;7.10;5.17;;;;;;;;;;5078872;28;20448;-71
2021/08/10 11:32:36;;;;;;;7.80;6.03;;;;;;;;;;5077142;28;20445;-70
2021/08/10 11:35:20;;;;;;;8.33;5.37;;;;;;;;;;5078100;28;20477;-71
2021/08/10 11:38:05;;;;;;;9.57;4.63;;;;;;;;;;5069639;28;20736;-70
2021/08/10 11:40:37;;;;;;;7.20;5.13;;;;;;;;;;5059197;28;20449;-71
2021/08/10 11:43:05;;;;;;;7.20;4.63;;;;;;;;;;5071968;28;20474;-72
2021/08/10 11:45:37;;;;;;;7.60;6.10;;;;;;;;;;5079708;28;20444;-72
2021/08/10 11:48:05;;;;;;;13.17;8.20;;;;;;;;;;5078566;28;20448;-71
2021/08/10 11:50:34;;;;;;;15.67;9.43;;;;;;;;;;5078304;28;20513;-71
2021/08/10 11:53:07;;;;;;;13.30;11.40;;;;;;;;;;5076539;28;20471;-70
2021/08/10 11:55:35;;;;;;;9.73;8.27;;;;;;;;;;5077143;28;20480;-71
2021/08/10 11:58:04;;;;;;;13.93;10.33;;;;;;;;;;5068973;28;20473;-71
2021/08/10 12:00:33;;;;;;;6.93;5.23;;;;;;;;;;5065550;28;20468;-71
2021/08/10 12:03:01;;;;;;;10.03;7.93;;;;;;;;;;5078550;28;20563;-72
2021/08/10 12:05:33;;;;;;;11.70;8.30;;;;;;;;;;5076940;28;20444;-71
2021/08/10 12:08:18;;;;;;;11.87;7.17;;;;;;;;;;5063775;28;20725;-72
2021/08/10 12:10:48;;;;;;;10.90;7.37;;;;;;;;;;5077427;28;20696;-69
2021/08/10 12:13:20;;;;;;;7.63;4.50;;;;;;;;;;5078545;28;20529;-70
2021/08/10 12:15:48;;;;;;;8.00;5.57;;;;;;;;;;5077569;28;20491;-70
2021/08/10 12:18:19;;;;;;;8.40;6.97;;;;;;;;;;5077338;28;20562;-70
2021/08/10 12:21:07;;;;;;;13.43;8.40;;;;;;;;;;5075218;28;20863;-70
2021/08/10 12:23:42;;;;;;;15.40;11.03;;;;;;;;;;5077762;28;20444;-71
2021/08/10 12:26:13;;;;;;;13.03;10.30;;;;;;;;;;5077653;28;20448;-72
2021/08/10 12:28:57;;;;;;;11.30;6.70;;;;;;;;;;5076805;28;20518;-72
2021/08/10 12:31:57;;;;;;;10.37;5.40;;;;;;;;;;5067897;28;20444;-72
2021/08/10 12:34:32;;;;;;;9.50;5.10;;;;;;;;;;5077196;28;20499;-72
2021/08/10 12:37:03;;;;;;;6.57;4.20;;;;;;;;;;5076962;28;20539;-72
2021/08/10 12:39:38;;;;;;;11.00;6.23;;;;;;;;;;5077072;28;20464;-72
2021/08/10 12:42:08;;;;;;;7.93;5.50;;;;;;;;;;5061054;28;20449;-72
2021/08/10 12:44:38;;;;;;;8.10;5.53;;;;;;;;;;5065103;28;20577;-71
2021/08/10 12:47:13;;;;;;;7.13;5.60;;;;;;;;;;5077000;28;20495;-71
2021/08/10 12:49:42;;;;;;;10.30;4.03;;;;;;;;;;5081016;28;20455;-71
2021/08/10 12:52:11;;;;;;;5.67;5.13;;;;;;;;;;5095539;28;20452;-71
2021/08/10 12:54:39;;;;;;;9.50;4.27;;;;;;;;;;5080384;28;20488;-71
2021/08/10 12:57:20;;;;;;;14.70;6.17;;;;;;;;;;5075068;28;20529;-71
2021/08/10 12:59:50;;;;;;;7.53;5.27;;;;;;;;;;5070120;28;20460;-71
2021/08/10 13:02:37;;;;;;;9.83;5.57;;;;;;;;;;5076412;28;20460;-73
2021/08/10 13:05:05;;;;;;;5.80;3.93;;;;;;;;;;5076186;28;20549;-71
2021/08/10 13:07:37;;;;;;;6.93;5.53;;;;;;;;;;5077036;28;20467;-73
2021/08/10 13:10:08;;;;;;;6.33;4.50;;;;;;;;;;5075249;28;20456;-73
2021/08/10 13:12:57;;;;;;;5.43;4.20;;;;;;;;;;5095204;28;20452;-71
2021/08/10 13:15:26;;;;;;;5.70;4.47;;;;;;;;;;5077946;28;20481;-71
2021/08/10 13:17:55;;;;;;;8.53;6.07;;;;;;;;;;5075176;28;20476;-72
2021/08/10 13:20:31;;;;;;;9.77;5.83;;;;;;;;;;5068094;28;20855;-73
2021/08/10 13:23:19;;;;;;;6.30;4.63;;;;;;;;;;5074211;28;20476;-72
2021/08/10 13:25:54;;;;;;;8.70;5.40;;;;;;;;;;5074485;28;20523;-72
2021/08/10 13:28:24;;;;;;;9.33;5.17;;;;;;;;;;5074577;28;20776;-72
2021/08/10 13:30:51;;;;;;;10.30;5.20;;;;;;;;;;5062664;28;20522;-71
2021/08/10 13:33:21;;;;;;;9.27;5.57;;;;;;;;;;5058424;28;20480;-71
2021/08/10 13:35:50;;;;;;;7.63;4.93;;;;;;;;;;5065807;28;20459;-71
2021/08/10 13:38:19;;;;;;;5.77;3.43;;;;;;;;;;5079130;28;20499;-71
2021/08/10 13:40:53;;;;;;;5.77;4.23;;;;;;;;;;5076693;28;20747;-72
2021/08/10 13:43:23;;;;;;;3.90;2.80;;;;;;;;;;5074441;28;20444;-71
2021/08/10 13:45:52;;;;;;;5.90;4.43;;;;;;;;;;5073998;28;20463;-72
2021/08/10 13:48:19;;;;;;;4.87;3.37;;;;;;;;;;5074193;28;20749;-71
2021/08/10 13:50:48;;;;;;;7.80;4.93;;;;;;;;;;5076270;28;20822;-72
2021/08/10 13:53:18;;;;;;;10.93;5.43;;;;;;;;;;5081689;28;20440;-73
2021/08/10 13:55:46;;;;;;;7.23;4.17;;;;;;;;;;5073748;28;20485;-71
2021/08/10 13:58:14;;;;;;;9.40;5.80;;;;;;;;;;5075153;28;20551;-72
2021/08/10 14:00:50;;;;;;;10.73;4.57;;;;;;;;;;5074730;28;20544;-71
2021/08/10 14:03:21;;;;;;;4.43;3.30;;;;;;;;;;5075959;28;20448;-71
2021/08/10 14:05:49;;;;;;;6.47;4.57;;;;;;;;;;5075806;28;20449;-71
2021/08/10 14:08:29;;;;;;;4.53;3.60;;;;;;;;;;5076688;28;20464;-71
2021/08/10 14:11:03;;;;;;;6.60;3.50;;;;;;;;;;5070667;28;20476;-72
2021/08/10 14:13:32;;;;;;;5.70;4.43;;;;;;;;;;5078376;28;20440;-71
2021/08/10 14:16:02;;;;;;;4.90;3.30;;;;;;;;;;5075860;28;20454;-72
2021/08/10 14:18:30;;;;;;;5.73;4.53;;;;;;;;;;5084604;28;20531;-72
2021/08/10 14:21:00;;;;;;;17.03;8.30;;;;;;;;;;5074727;28;20532;-72
2021/08/10 14:23:29;;;;;;;9.50;8.00;;;;;;;;;;5070049;28;20547;-71
2021/08/10 14:25:57;;;;;;;7.40;5.57;;;;;;;;;;5066596;28;20477;-72
2021/08/10 14:28:24;;;;;;;5.27;3.40;;;;;;;;;;5076316;28;20600;-72
2021/08/10 14:30:52;;;;;;;5.60;4.27;;;;;;;;;;5075469;28;20487;-72
2021/08/10 14:33:21;;;;;;;5.03;4.47;;;;;;;;;;5076918;28;20523;-71
2021/08/10 14:35:49;;;;;;;5.53;3.17;;;;;;;;;;5075078;28;20508;-72
2021/08/10 14:38:18;;;;;;;6.20;4.97;;;;;;;;;;5073384;28;20460;-71
2021/08/10 14:40:46;;;;;;;8.57;4.50;;;;;;;;;;5073789;28;20748;-72
2021/08/10 14:43:19;;;;;;;6.83;4.73;;;;;;;;;;5079874;28;20440;-72
2021/08/10 14:45:49;;;;;;;4.50;4.10;;;;;;;;;;5076413;28;21974;-71
2021/08/10 14:48:28;;;;;;;8.40;3.93;;;;;;;;;;5068359;28;20912;-69
2021/08/10 14:50:58;;;;;;;8.03;5.90;;;;;;;;;;5082586;28;20498;-70
2021/08/10 14:53:27;;;;;;;4.53;3.40;;;;;;;;;;5074488;28;20449;-71
2021/08/10 14:55:54;;;;;;;7.73;4.97;;;;;;;;;;5072383;28;20492;-71
2021/08/10 14:58:22;;;;;;;7.83;5.93;;;;;;;;;;5075216;28;21024;-72
2021/08/10 15:00:55;;;;;;;6.40;5.13;;;;;;;;;;5074517;28;20495;-72